createdAt,value
2022-11-23T01:01:26.322Z,8.20
2022-11-23T01:03:59.684Z,8.30
2022-11-23T01:06:32.097Z,8.30
2022-11-23T01:09:05.328Z,8.30
2022-11-23T01:11:36.456Z,8.40
2022-11-23T01:14:07.397Z,8.40
2022-11-23T01:16:42.051Z,8.50
2022-11-23T01:19:15.913Z,8.50
2022-11-23T01:21:47.393Z,8.50
2022-11-23T01:24:19.415Z,8.50
2022-11-23T01:26:54.235Z,8.50
2022-11-23T01:29:25.601Z,8.40
2022-11-23T01:31:58.962Z,8.40
2022-11-23T01:34:29.750Z,8.40
2022-11-23T01:37:00.438Z,8.40
2022-11-23T01:39:32.319Z,8.40
2022-11-23T01:42:07.104Z,8.40
2022-11-23T01:44:40.582Z,8.40
2022-11-23T01:47:13.346Z,8.40
2022-11-23T01:49:46.510Z,8.40
2022-11-23T01:52:22.183Z,8.40
2022-11-23T01:54:55.431Z,8.50
2022-11-23T01:57:29.986Z,8.40
2022-11-23T02:00:01.276Z,8.40
2022-11-23T02:02:36.666Z,8.40
2022-11-23T02:05:09.657Z,8.40
2022-11-23T02:07:40.731Z,8.40
2022-11-23T02:10:13.262Z,8.40
2022-11-23T02:12:44.036Z,8.40
2022-11-23T02:15:15.234Z,8.50
2022-11-23T02:17:48.694Z,8.40
2022-11-23T02:20:21.702Z,8.40
2022-11-23T02:23:02.240Z,8.40
2022-11-23T02:25:40.278Z,8.40
2022-11-23T02:28:14.173Z,8.30
2022-11-23T02:30:46.605Z,8.30
2022-11-23T02:33:18.936Z,8.30
2022-11-23T02:35:53.691Z,8.30
2022-11-23T02:38:26.117Z,8.30
2022-11-23T02:40:57.750Z,8.30
2022-11-23T02:43:30.433Z,8.30
2022-11-23T02:46:02.560Z,8.30
2022-11-23T02:48:34.073Z,8.30
2022-11-23T02:51:05.763Z,8.40
2022-11-23T02:53:36.581Z,8.40
2022-11-23T02:56:08.049Z,8.40
2022-11-23T02:58:42.634Z,8.40
2022-11-23T03:01:13.960Z,8.40
2022-11-23T03:03:45.017Z,8.40
2022-11-23T03:06:16.523Z,8.40
2022-11-23T03:08:47.409Z,8.30
2022-11-23T03:11:19.005Z,8.10
2022-11-23T03:14:00.556Z,8.00
2022-11-23T03:16:31.570Z,7.90
2022-11-23T03:19:02.620Z,7.90
2022-11-23T03:21:33.699Z,7.80
2022-11-23T03:24:05.197Z,7.80
2022-11-23T03:26:35.837Z,7.80
2022-11-23T03:29:08.879Z,7.90
2022-11-23T03:31:40.672Z,7.90
2022-11-23T03:34:12.049Z,7.90
2022-11-23T03:36:43.043Z,7.80
2022-11-23T03:39:14.388Z,7.80
2022-11-23T03:41:46.762Z,7.80
2022-11-23T03:44:20.962Z,7.80
2022-11-23T03:46:52.940Z,7.80
2022-11-23T03:49:24.908Z,7.80
2022-11-23T03:51:55.897Z,7.80
2022-11-23T03:54:26.698Z,7.70
2022-11-23T03:56:57.679Z,7.70
2022-11-23T03:59:31.823Z,7.70
2022-11-23T04:02:03.595Z,7.70
2022-11-23T04:04:34.623Z,7.70
2022-11-23T04:07:05.938Z,7.70
2022-11-23T04:09:36.801Z,7.70
2022-11-23T04:12:07.939Z,7.70
2022-11-23T04:14:40.821Z,7.70
2022-11-23T04:17:12.572Z,7.70
2022-11-23T04:19:44.225Z,7.70
2022-11-23T04:22:15.854Z,7.70
2022-11-23T04:24:47.498Z,7.70
2022-11-23T04:27:18.610Z,7.70
2022-11-23T04:29:51.783Z,7.80
2022-11-23T04:32:23.565Z,7.90
2022-11-23T04:34:54.466Z,8.00
2022-11-23T04:37:25.503Z,8.00
2022-11-23T04:39:56.459Z,8.00
2022-11-23T04:42:27.840Z,8.00
2022-11-23T04:45:01.190Z,8.00
2022-11-23T04:47:32.294Z,8.00
2022-11-23T04:50:03.342Z,8.00
2022-11-23T04:52:33.975Z,8.10
2022-11-23T04:55:05.565Z,8.10
2022-11-23T04:57:36.681Z,8.00
2022-11-23T05:00:10.494Z,7.90
2022-11-23T05:02:42.146Z,7.90
2022-11-23T05:05:14.541Z,7.90
2022-11-23T05:07:45.298Z,7.90
2022-11-23T05:10:17.768Z,8.00
2022-11-23T05:12:48.755Z,7.90
2022-11-23T05:15:21.653Z,7.90
2022-11-23T05:17:58.872Z,7.90
2022-11-23T05:20:30.485Z,7.90
2022-11-23T05:23:01.336Z,7.90
2022-11-23T05:25:32.392Z,7.90
2022-11-23T05:28:11.330Z,7.90
2022-11-23T05:30:50.248Z,7.90
2022-11-23T05:33:21.246Z,7.80
2022-11-23T05:35:52.743Z,7.80
2022-11-23T05:38:24.257Z,7.80
2022-11-23T05:40:55.055Z,7.80
2022-11-23T05:43:26.881Z,7.80
2022-11-23T05:46:02.407Z,7.70
2022-11-23T05:48:34.325Z,7.70
2022-11-23T05:51:05.763Z,7.70
2022-11-23T05:53:37.581Z,7.70
2022-11-23T05:56:09.553Z,7.80
2022-11-23T05:58:41.160Z,7.70
2022-11-23T06:01:14.434Z,7.70
2022-11-23T06:03:45.471Z,7.70
2022-11-23T06:06:16.502Z,7.80
2022-11-23T06:08:49.248Z,7.80
2022-11-23T06:11:20.739Z,7.80
2022-11-23T06:13:51.954Z,7.80
2022-11-23T06:16:25.270Z,7.80
2022-11-23T06:18:56.400Z,7.70
2022-11-23T06:21:27.552Z,7.70
2022-11-23T06:23:58.274Z,7.70
2022-11-23T06:26:29.562Z,7.70
2022-11-23T06:29:01.690Z,7.70
2022-11-23T06:31:35.803Z,7.60
2022-11-23T06:34:06.563Z,7.60
2022-11-23T06:36:37.558Z,7.60
2022-11-23T06:39:08.656Z,7.60
2022-11-23T06:41:39.933Z,7.60
2022-11-23T06:44:11.011Z,7.60
2022-11-23T06:46:43.424Z,7.60
2022-11-23T06:49:15.100Z,7.60
2022-11-23T06:51:46.509Z,7.50
2022-11-23T06:54:19.702Z,7.60
2022-11-23T06:56:53.466Z,7.60
2022-11-23T06:59:24.487Z,7.50
2022-11-23T07:01:58.199Z,7.40
2022-11-23T07:04:29.704Z,7.40
2022-11-23T07:07:01.738Z,7.40
2022-11-23T07:09:32.937Z,7.30
2022-11-23T07:12:03.973Z,7.40
2022-11-23T07:14:34.574Z,7.30
2022-11-23T07:17:07.660Z,7.20
2022-11-23T07:19:38.641Z,7.30
2022-11-23T07:22:09.957Z,7.20
2022-11-23T07:24:46.386Z,7.30
2022-11-23T07:27:19.703Z,7.30
2022-11-23T07:29:51.865Z,7.20
2022-11-23T07:32:25.169Z,7.20
2022-11-23T07:34:56.183Z,7.20
2022-11-23T07:37:27.361Z,7.20
2022-11-23T07:39:58.741Z,7.20
2022-11-23T07:42:36.831Z,7.20
2022-11-23T07:45:14.163Z,7.20
2022-11-23T07:47:47.714Z,7.30
2022-11-23T07:50:19.286Z,7.30
2022-11-23T07:52:51.597Z,7.40
2022-11-23T07:55:22.482Z,7.40
2022-11-23T07:57:56.855Z,7.40
2022-11-23T08:00:29.417Z,7.40
2022-11-23T08:03:26.727Z,7.50
2022-11-23T08:05:54.261Z,7.60
2022-11-23T08:08:25.835Z,7.60
2022-11-23T08:10:57.095Z,7.60
2022-11-23T08:13:28.151Z,7.60
2022-11-23T08:16:01.726Z,7.70
2022-11-23T08:18:34.466Z,7.70
2022-11-23T08:21:05.378Z,7.70
2022-11-23T08:23:36.240Z,7.60
2022-11-23T08:26:13.466Z,7.60
2022-11-23T08:28:44.779Z,7.70
2022-11-23T08:31:17.078Z,7.70
2022-11-23T08:33:49.967Z,7.70
2022-11-23T08:36:21.331Z,7.60
2022-11-23T08:38:53.844Z,7.70
2022-11-23T08:41:24.943Z,7.70
2022-11-23T08:43:56.151Z,7.70
2022-11-23T08:46:27.534Z,7.70
